Terminal Aerodrome Forecast
Issued by NWS Sterling, VA

Home | Current Version | Previous Version | Text Only | Print | Product List | Glossary On
Versions: 1 2 3 4 5 6 7 8 9 10 11 12 13 14
426
FTUS41 KLWX 261721
TAFCHO
TAF
KCHO 261721Z 2618/2718 VRB05KT P6SM SKC
     FM270400 VRB03KT P6SM FEW250
     FM270900 VRB03KT 3SM BR FEW250
     FM271300 19009KT P6SM FEW250=

USA.gov is the U.S. government's official web portal to all federal, state and local government web resources and services.